createdAt,value
2022-08-16T00:01:41.099Z,100901.63
2022-08-16T00:04:10.290Z,100894.53
2022-08-16T00:06:39.660Z,100891.81
2022-08-16T00:09:10.743Z,100897.25
2022-08-16T00:11:39.709Z,100900.97
2022-08-16T00:14:13.656Z,100900.97
2022-08-16T00:17:05.375Z,100905.53
2022-08-16T00:19:40.991Z,100901.28
2022-08-16T00:22:13.433Z,100898.75
2022-08-16T00:24:44.649Z,100895.84
2022-08-16T00:27:15.776Z,100900.59
2022-08-16T00:29:47.045Z,100900.75
2022-08-16T00:32:18.013Z,100899.94
2022-08-16T00:34:52.748Z,100903.66
2022-08-16T00:37:25.102Z,100906.53
2022-08-16T00:40:34.163Z,100906.69
2022-08-16T00:43:04.116Z,100904.66
2022-08-16T00:45:57.893Z,100911.44
2022-08-16T00:48:30.915Z,100910.91
2022-08-16T00:50:59.886Z,100903.63
2022-08-16T00:53:30.932Z,100903.63
2022-08-16T00:56:05.092Z,100903.63
2022-08-16T00:58:37.233Z,100903.63
2022-08-16T01:01:08.865Z,100904.47
2022-08-16T01:03:40.746Z,100903.47
2022-08-16T01:06:39.859Z,100900.91
2022-08-16T01:09:00.745Z,100903.63
2022-08-16T01:11:29.699Z,100892.75
2022-08-16T01:14:04.160Z,100902.63
2022-08-16T01:16:35.076Z,100904.66
2022-08-16T01:19:15.290Z,100898.38
2022-08-16T01:21:51.829Z,100900.03
2022-08-16T01:24:53.054Z,100900.03
2022-08-16T01:27:17.560Z,100898.50
2022-08-16T01:29:58.340Z,100895.66
2022-08-16T01:32:33.472Z,100897.69
2022-08-16T01:35:08.355Z,100901.22
2022-08-16T01:37:54.042Z,100896.84
2022-08-16T01:40:29.724Z,100893.25
2022-08-16T01:42:59.109Z,100895.31
2022-08-16T01:45:39.771Z,100892.59
2022-08-16T01:48:19.828Z,100887.97
2022-08-16T01:51:09.451Z,100882.19
2022-08-16T01:53:42.074Z,100878.50
2022-08-16T01:56:28.725Z,100879.50
2022-08-16T01:59:00.123Z,100879.66
2022-08-16T02:01:31.840Z,100885.09
2022-08-16T02:04:11.087Z,100882.56
2022-08-16T02:06:46.016Z,100882.69
2022-08-16T02:09:17.918Z,100877.47
2022-08-16T02:11:53.684Z,100874.75
2022-08-16T02:14:26.694Z,100871.34
2022-08-16T02:16:57.419Z,100875.06
2022-08-16T02:19:59.049Z,100873.22
2022-08-16T02:22:35.934Z,100876.25
2022-08-16T02:25:09.884Z,100868.97
2022-08-16T02:27:41.081Z,100872.69
2022-08-16T02:30:35.665Z,100872.50
2022-08-16T02:33:06.242Z,100864.72
2022-08-16T02:35:49.916Z,100866.56
2022-08-16T02:38:26.786Z,100858.91
2022-08-16T02:40:55.180Z,100859.28
2022-08-16T02:43:27.121Z,100854.69
2022-08-16T02:45:57.607Z,100856.59
2022-08-16T02:48:29.329Z,100854.69
2022-08-16T02:51:04.223Z,100854.69
2022-08-16T02:53:43.860Z,100855.56
2022-08-16T02:56:14.784Z,100860.13
2022-08-16T02:58:46.147Z,100849.28
2022-08-16T03:01:25.353Z,100844.88
2022-08-16T03:04:29.192Z,100848.78
2022-08-16T03:06:57.598Z,100852.44
2022-08-16T03:09:47.993Z,100850.44
2022-08-16T03:12:30.010Z,100853.16
2022-08-16T03:15:00.754Z,100849.63
2022-08-16T03:17:32.324Z,100851.59
2022-08-16T03:20:03.370Z,100848.06
2022-08-16T03:22:37.420Z,100839.06
2022-08-16T03:25:16.113Z,100845.34
2022-08-16T03:27:53.965Z,100843.81
2022-08-16T03:30:28.425Z,100839.38
2022-08-16T03:33:00.216Z,100841.41
2022-08-16T03:35:35.433Z,100839.72
2022-08-16T03:38:34.342Z,100844.44
2022-08-16T03:41:24.229Z,100838.34
2022-08-16T03:43:56.952Z,100841.22
2022-08-16T03:46:48.240Z,100843.78
2022-08-16T03:49:36.566Z,100849.53
2022-08-16T03:52:06.809Z,100855.78
2022-08-16T03:54:36.725Z,100857.66
2022-08-16T03:57:06.244Z,100855.78
2022-08-16T03:59:39.879Z,100866.47
2022-08-16T04:02:22.476Z,100862.91
2022-08-16T04:05:00.121Z,100861.22
2022-08-16T04:07:33.526Z,100861.22
2022-08-16T04:10:36.351Z,100858.50
2022-08-16T04:12:53.904Z,100861.22
2022-08-16T04:15:24.429Z,100861.22
2022-08-16T04:18:10.560Z,100857.47
2022-08-16T04:20:40.278Z,100865.59
2022-08-16T04:23:09.213Z,100860.03
2022-08-16T04:25:40.569Z,100864.44
2022-08-16T04:28:51.689Z,100866.28
2022-08-16T04:30:58.747Z,100864.44
2022-08-16T04:33:28.850Z,100869.72
2022-08-16T04:36:00.381Z,100875.97
2022-08-16T04:38:30.848Z,100870.53
2022-08-16T04:40:59.853Z,100875.63
2022-08-16T04:43:29.312Z,100875.81
2022-08-16T04:46:00.694Z,100875.50
2022-08-16T04:48:34.104Z,100869.03
2022-08-16T04:51:12.326Z,100870.06
2022-08-16T04:53:47.101Z,100871.75
2022-08-16T04:56:17.362Z,100862.63
2022-08-16T04:58:46.831Z,100860.59
2022-08-16T05:01:18.828Z,100866.00
2022-08-16T05:04:01.131Z,100865.03
2022-08-16T05:06:44.880Z,100862.44
2022-08-16T05:09:22.939Z,100858.75
2022-08-16T05:11:53.569Z,100851.59
2022-08-16T05:14:45.791Z,100852.44
2022-08-16T05:17:19.849Z,100854.19
2022-08-16T05:19:57.722Z,100859.13
2022-08-16T05:22:31.542Z,100856.22
2022-08-16T05:25:09.157Z,100861.50
2022-08-16T05:27:42.787Z,100857.78
2022-08-16T05:30:35.719Z,100860.34
2022-08-16T05:33:06.610Z,100859.66
2022-08-16T05:35:39.044Z,100838.22
2022-08-16T05:38:33.307Z,100856.09
2022-08-16T05:41:09.493Z,100855.91
2022-08-16T05:43:43.715Z,100847.91
2022-08-16T05:46:29.489Z,100856.94
2022-08-16T05:49:08.952Z,100863.91
2022-08-16T05:51:41.873Z,100862.03
2022-08-16T05:54:14.495Z,100859.47
2022-08-16T05:56:45.961Z,100863.03
2022-08-16T05:59:19.599Z,100854.06
2022-08-16T06:01:52.096Z,100858.47
2022-08-16T06:04:35.551Z,100847.28
2022-08-16T06:07:25.034Z,100856.63
2022-08-16T06:10:31.967Z,100846.09
2022-08-16T06:13:02.808Z,100821.09
2022-08-16T06:15:31.078Z,100847.78
2022-08-16T06:18:01.373Z,100850.34
2022-08-16T06:20:34.857Z,100852.88
2022-08-16T06:23:17.200Z,100851.00
2022-08-16T06:25:57.616Z,100855.75
2022-08-16T06:28:34.841Z,100850.16
2022-08-16T06:31:06.931Z,100849.16
2022-08-16T06:33:42.355Z,100847.78
2022-08-16T06:36:15.254Z,100848.97
2022-08-16T06:38:55.618Z,100848.13
2022-08-16T06:41:45.004Z,100847.31
2022-08-16T06:44:31.713Z,100845.59
2022-08-16T06:47:03.625Z,100845.41
2022-08-16T06:49:31.937Z,100838.13
2022-08-16T06:52:02.641Z,100838.97
2022-08-16T06:54:37.994Z,100839.50
2022-08-16T06:57:06.710Z,100846.94
2022-08-16T06:59:48.669Z,100838.66
2022-08-16T07:02:32.345Z,100836.63
2022-08-16T07:05:01.032Z,100832.06
2022-08-16T07:07:34.441Z,100841.53
2022-08-16T07:10:08.628Z,100841.41
2022-08-16T07:12:47.518Z,100844.13
2022-08-16T07:15:26.972Z,100845.66
2022-08-16T07:17:56.720Z,100849.22
2022-08-16T07:20:35.354Z,100842.59
2022-08-16T07:23:13.110Z,100829.03
2022-08-16T07:25:57.649Z,100837.00
2022-08-16T07:28:27.319Z,100830.56
2022-08-16T07:30:57.277Z,100833.09
2022-08-16T07:33:52.897Z,100831.06
2022-08-16T07:36:25.093Z,100833.78
2022-08-16T07:38:53.981Z,100827.34
2022-08-16T07:41:24.950Z,100829.06
2022-08-16T07:44:00.298Z,100828.88
2022-08-16T07:46:38.687Z,100826.00
2022-08-16T07:49:18.166Z,100816.50
2022-08-16T07:51:46.816Z,100823.13
2022-08-16T07:54:20.663Z,100839.22
2022-08-16T07:56:54.577Z,100832.13
2022-08-16T07:59:26.113Z,100832.63
2022-08-16T08:02:11.925Z,100823.63
2022-08-16T08:04:41.647Z,100835.19
2022-08-16T08:07:10.421Z,100846.84
2022-08-16T08:09:43.482Z,100819.22
2022-08-16T08:12:32.286Z,100839.25
2022-08-16T08:15:02.973Z,100838.25
2022-08-16T08:17:42.853Z,100845.34
2022-08-16T08:20:20.696Z,100836.06
2022-08-16T08:23:01.158Z,100831.78
2022-08-16T08:25:53.982Z,100812.63
2022-08-16T08:28:26.632Z,100832.16
2022-08-16T08:31:02.996Z,100834.03
2022-08-16T08:33:35.661Z,100836.25
2022-08-16T08:36:08.391Z,100836.91
2022-08-16T08:38:44.178Z,100836.75
2022-08-16T08:41:18.248Z,100843.72
2022-08-16T08:43:51.801Z,100840.81
2022-08-16T08:46:22.349Z,100843.34
2022-08-16T08:48:59.079Z,100846.94
2022-08-16T08:51:31.849Z,100853.88
2022-08-16T08:54:07.030Z,100850.16
2022-08-16T08:56:45.472Z,100848.97
2022-08-16T08:59:41.567Z,100852.38
2022-08-16T09:02:14.549Z,100851.50
2022-08-16T09:04:51.933Z,100858.66
2022-08-16T09:07:23.714Z,100854.06
2022-08-16T09:10:00.939Z,100865.63
2022-08-16T09:12:37.354Z,100856.28
2022-08-16T09:15:21.648Z,100855.09
2022-08-16T09:17:55.761Z,100860.53
2022-08-16T09:20:29.567Z,100858.47
2022-08-16T09:22:59.224Z,100861.88
2022-08-16T09:25:34.149Z,100854.56
2022-08-16T09:28:09.553Z,100862.72
2022-08-16T09:30:46.720Z,100850.19
2022-08-16T09:33:20.043Z,100854.22
2022-08-16T09:35:53.859Z,100860.00
2022-08-16T09:38:32.009Z,100865.63
2022-08-16T09:41:02.884Z,100863.75
2022-08-16T09:43:58.105Z,100875.44
2022-08-16T09:46:45.129Z,100870.00
2022-08-16T09:49:09.347Z,100872.72
2022-08-16T09:51:40.489Z,100876.28
2022-08-16T09:54:09.518Z,100857.28
2022-08-16T09:56:39.534Z,100871.53
2022-08-16T09:59:22.246Z,100869.84
2022-08-16T10:01:53.005Z,100863.25
2022-08-16T10:04:31.759Z,100864.25
2022-08-16T10:07:15.676Z,100868.34
2022-08-16T10:09:55.755Z,100868.50
2022-08-16T10:12:44.044Z,100870.19
2022-08-16T10:15:15.675Z,100844.41
2022-08-16T10:17:59.860Z,100872.59
2022-08-16T10:20:33.928Z,100874.25
2022-08-16T10:23:07.227Z,100862.56
2022-08-16T10:27:17.134Z,100857.97
2022-08-16T10:28:32.183Z,100860.69
2022-08-16T10:31:14.391Z,100860.53
2022-08-16T10:33:44.124Z,100861.38
2022-08-16T10:36:38.916Z,100852.38
2022-08-16T10:39:02.240Z,100857.63
2022-08-16T10:41:32.665Z,100853.06
2022-08-16T10:44:00.785Z,100851.00
2022-08-16T10:46:33.808Z,100851.84
2022-08-16T10:49:10.791Z,100860.69
2022-08-16T10:52:00.835Z,100827.94
2022-08-16T10:54:29.764Z,100858.28
2022-08-16T10:56:59.217Z,100848.81
2022-08-16T10:59:38.506Z,100853.72
2022-08-16T11:02:59.737Z,100864.09
2022-08-16T11:05:08.182Z,100852.06
2022-08-16T11:07:51.702Z,100853.94
2022-08-16T11:19:05.438Z,100843.91
2022-08-16T11:22:23.336Z,100846.97
2022-08-16T11:24:39.553Z,100851.38
2022-08-16T11:27:32.556Z,100842.34
2022-08-16T11:29:57.836Z,100848.50
2022-08-16T11:32:32.505Z,100830.16
2022-08-16T11:35:10.645Z,100845.59
2022-08-16T11:40:38.786Z,100856.97
2022-08-16T11:43:10.145Z,100847.63
2022-08-16T11:45:38.737Z,100860.16
2022-08-16T11:48:09.285Z,100851.88
2022-08-16T11:50:37.369Z,100818.75
2022-08-16T11:53:08.138Z,100847.97
2022-08-16T11:55:38.466Z,100838.94
2022-08-16T11:58:07.706Z,100832.50
2022-08-16T12:00:51.934Z,100834.53
2022-08-16T12:03:31.409Z,100847.78
2022-08-16T12:06:10.925Z,100844.91
2022-08-16T12:08:57.606Z,100844.91
2022-08-16T12:11:31.499Z,100850.16
2022-08-16T12:14:00.327Z,100852.88
2022-08-16T12:16:31.322Z,100852.69
2022-08-16T12:19:03.102Z,100847.25
2022-08-16T12:21:57.723Z,100848.09
2022-08-16T12:24:23.903Z,100839.78
2022-08-16T12:26:52.239Z,100842.31
2022-08-16T12:29:20.554Z,100847.75
2022-08-16T12:32:01.555Z,100846.56
2022-08-16T12:34:38.426Z,100846.56
2022-08-16T12:37:19.486Z,100838.25
2022-08-16T12:39:51.308Z,100847.22
2022-08-16T12:42:22.382Z,100848.09
2022-08-16T12:45:02.766Z,100840.97
2022-08-16T12:47:48.621Z,100831.63
2022-08-16T12:50:16.890Z,100813.09
2022-08-16T12:52:52.636Z,100803.25
2022-08-16T12:55:23.862Z,100823.09
2022-08-16T12:58:01.865Z,100821.22
2022-08-16T13:00:33.154Z,100821.91
2022-08-16T13:03:03.617Z,100813.75
2022-08-16T13:08:01.021Z,100813.06
2022-08-16T13:10:37.902Z,100810.19
2022-08-16T13:13:09.168Z,100812.91
2022-08-16T13:15:56.852Z,100796.59
2022-08-16T13:18:33.947Z,100797.47
2022-08-16T13:21:02.865Z,100792.69
2022-08-16T13:23:31.461Z,100790.81
2022-08-16T13:26:01.333Z,100788.91
2022-08-16T13:28:29.397Z,100776.38
2022-08-16T13:30:59.468Z,100772.59
2022-08-16T13:33:30.666Z,100778.75
2022-08-16T13:36:00.668Z,100771.78
2022-08-16T13:38:36.419Z,100778.91
2022-08-16T13:41:09.833Z,100773.97
2022-08-16T13:43:39.456Z,100767.69
2022-08-16T13:46:08.270Z,100774.13
2022-08-16T13:48:44.460Z,100772.94
2022-08-16T13:51:17.006Z,100772.94
2022-08-16T13:53:54.942Z,100771.06
2022-08-16T13:56:37.619Z,100772.94
2022-08-16T13:59:14.262Z,100772.56
2022-08-16T14:01:54.638Z,100768.00
2022-08-16T14:04:26.876Z,100764.41
2022-08-16T14:06:57.114Z,100759.84
2022-08-16T14:09:27.280Z,100765.97
2022-08-16T14:11:57.723Z,100763.94
2022-08-16T14:14:28.592Z,100771.25
2022-08-16T14:16:58.452Z,100769.53
2022-08-16T14:19:27.870Z,100765.63
2022-08-16T14:22:15.132Z,100765.63
2022-08-16T14:24:48.648Z,100768.34
2022-08-16T14:27:21.342Z,100759.19
2022-08-16T14:29:51.465Z,100768.84
2022-08-16T14:32:27.194Z,100767.81
2022-08-16T14:35:03.584Z,100753.91
2022-08-16T14:37:32.578Z,100771.38
2022-08-16T14:40:00.939Z,100763.06
2022-08-16T14:42:30.362Z,100770.34
2022-08-16T14:45:00.376Z,100764.06
2022-08-16T14:47:34.025Z,100759.47
2022-08-16T14:50:03.293Z,100768.50
2022-08-16T14:55:23.027Z,100760.34
2022-08-16T14:57:52.820Z,100767.28
2022-08-16T15:00:32.853Z,100770.84
2022-08-16T15:03:05.823Z,100768.81
2022-08-16T15:05:34.361Z,100758.44
2022-08-16T15:08:03.531Z,100767.09
2022-08-16T15:10:32.085Z,100770.69
2022-08-16T15:13:02.234Z,100769.47
2022-08-16T15:15:31.510Z,100763.19
2022-08-16T15:18:01.708Z,100762.16
2022-08-16T15:20:32.761Z,100750.59
2022-08-16T15:23:02.814Z,100753.81
2022-08-16T15:25:35.163Z,100751.28
2022-08-16T15:28:07.224Z,100748.72
2022-08-16T15:30:59.324Z,100756.53
2022-08-16T15:33:29.178Z,100752.81
2022-08-16T15:36:00.285Z,100762.81
2022-08-16T15:38:54.603Z,100752.81
2022-08-16T15:41:35.890Z,100750.09
2022-08-16T15:44:10.415Z,100755.22
2022-08-16T15:46:56.151Z,100753.81
2022-08-16T15:49:37.086Z,100761.81
2022-08-16T15:52:10.555Z,100772.69
2022-08-16T15:54:48.660Z,100767.06
2022-08-16T15:57:20.945Z,100764.34
2022-08-16T15:59:52.881Z,100754.31
2022-08-16T16:02:29.381Z,100749.72
2022-08-16T16:05:01.884Z,100758.06
2022-08-16T16:07:31.941Z,100755.16
2022-08-16T16:10:00.488Z,100736.19
2022-08-16T16:12:51.008Z,100749.53
2022-08-16T16:15:22.792Z,100747.66
2022-08-16T16:17:52.414Z,100736.28
2022-08-16T16:20:21.620Z,100737.63
2022-08-16T16:22:50.081Z,100742.03
2022-08-16T16:25:19.779Z,100743.75
2022-08-16T16:27:55.689Z,100747.31
2022-08-16T16:30:33.271Z,100744.59
2022-08-16T16:33:20.679Z,100743.75
2022-08-16T16:35:55.551Z,100747.31
2022-08-16T16:38:28.876Z,100747.13
2022-08-16T16:40:57.815Z,100739.97
2022-08-16T16:43:31.949Z,100740.66
2022-08-16T16:46:38.920Z,100745.25
2022-08-16T16:48:53.104Z,100749.00
2022-08-16T16:51:22.404Z,100744.41
2022-08-16T16:53:56.021Z,100746.28
2022-08-16T16:56:30.200Z,100737.09
2022-08-16T16:59:06.008Z,100746.28
2022-08-16T17:01:57.715Z,100741.50
2022-08-16T17:04:31.640Z,100734.53
2022-08-16T17:07:02.005Z,100735.38
2022-08-16T17:09:30.750Z,100740.84
2022-08-16T17:11:59.406Z,100731.66
2022-08-16T17:14:32.738Z,100732.19
2022-08-16T17:17:07.003Z,100741.50
2022-08-16T17:19:40.814Z,100685.09
2022-08-16T17:22:33.067Z,100745.41
2022-08-16T17:25:01.820Z,100755.47
2022-08-16T17:27:33.126Z,100762.59
2022-08-16T17:30:15.639Z,100749.72
2022-08-16T17:32:57.213Z,100765.31
2022-08-16T17:38:32.991Z,100764.47
2022-08-16T17:39:28.722Z,100770.59
2022-08-16T17:41:09.437Z,100766.34
2022-08-16T17:43:44.427Z,100766.34
2022-08-16T17:46:50.617Z,100769.91
2022-08-16T17:49:04.790Z,100770.09
2022-08-16T17:51:34.219Z,100769.25
2022-08-16T17:54:03.545Z,100779.25
2022-08-16T17:56:31.627Z,100788.28
2022-08-16T17:58:59.676Z,100789.13
2022-08-16T18:01:29.165Z,100779.97
2022-08-16T18:04:07.947Z,100769.13
2022-08-16T18:06:39.579Z,100777.41
2022-08-16T18:09:08.902Z,100781.97
2022-08-16T18:11:40.704Z,100790.16
2022-08-16T18:14:10.386Z,100775.72
2022-08-16T18:16:38.804Z,100780.13
2022-08-16T18:19:06.754Z,100778.44
2022-08-16T18:21:52.232Z,100780.47
2022-08-16T18:24:21.760Z,100782.38
2022-08-16T18:26:49.681Z,100786.94
2022-08-16T18:29:18.129Z,100763.38
2022-08-16T18:31:48.965Z,100785.09
2022-08-16T18:34:17.104Z,100779.66
2022-08-16T18:36:45.324Z,100780.66
2022-08-16T18:39:13.993Z,100777.75
2022-08-16T18:41:43.498Z,100775.88
2022-08-16T18:44:25.115Z,100774.22
2022-08-16T18:46:56.356Z,100772.00
2022-08-16T18:49:24.497Z,100768.81
2022-08-16T18:51:57.525Z,100774.56
2022-08-16T18:54:26.323Z,100777.63
2022-08-16T18:56:57.913Z,100777.78
2022-08-16T18:59:28.511Z,100775.91
2022-08-16T19:02:00.139Z,100773.41
2022-08-16T19:04:50.339Z,100768.97
2022-08-16T19:07:22.731Z,100762.00
2022-08-16T19:09:51.019Z,100763.88
2022-08-16T19:12:38.322Z,100757.63
2022-08-16T19:15:11.929Z,100757.44
2022-08-16T19:17:41.819Z,100761.34
2022-08-16T19:20:11.426Z,100755.25
2022-08-16T19:25:46.352Z,100750.16
2022-08-16T19:28:50.465Z,100753.91
2022-08-16T19:31:12.235Z,100741.34
2022-08-16T19:33:47.212Z,100738.63
2022-08-16T19:36:32.064Z,100742.34
2022-08-16T19:39:04.394Z,100742.50
2022-08-16T19:41:36.156Z,100744.22
2022-08-16T19:44:07.830Z,100746.94
2022-08-16T19:46:37.766Z,100722.00
2022-08-16T19:49:06.537Z,100741.66
2022-08-16T19:51:34.535Z,100749.81
2022-08-16T19:54:02.813Z,100744.53
2022-08-16T19:56:31.211Z,100743.53
2022-08-16T20:01:51.867Z,100750.16
2022-08-16T20:04:21.547Z,100742.00
2022-08-16T20:06:49.833Z,100749.16
2022-08-16T20:09:18.120Z,100756.63
2022-08-16T20:11:46.986Z,100748.66
2022-08-16T20:14:24.875Z,100745.28
2022-08-16T20:16:57.034Z,100746.47
2022-08-16T20:19:27.300Z,100743.91
2022-08-16T20:21:56.560Z,100746.81
2022-08-16T20:24:35.310Z,100741.53
2022-08-16T20:27:06.021Z,100745.66
2022-08-16T20:29:34.188Z,100747.16
2022-08-16T20:32:03.939Z,100744.25
2022-08-16T20:34:32.190Z,100739.69
2022-08-16T20:37:00.293Z,100737.16
2022-08-16T20:39:28.307Z,100740.38
2022-08-16T20:41:56.364Z,100737.66
2022-08-16T20:44:25.130Z,100740.38
2022-08-16T20:46:53.657Z,100738.81
2022-08-16T20:49:23.085Z,100740.19
2022-08-16T20:51:55.954Z,100745.81
2022-08-16T20:54:25.482Z,100739.69
2022-08-16T20:56:53.584Z,100744.75
2022-08-16T20:59:21.857Z,100749.34
2022-08-16T21:01:50.787Z,100748.53
2022-08-16T21:04:19.832Z,100741.38
2022-08-16T21:06:54.251Z,100700.72
2022-08-16T21:09:24.465Z,100745.13
2022-08-16T21:11:54.464Z,100739.69
2022-08-16T21:14:22.827Z,100742.38
2022-08-16T21:16:50.848Z,100748.88
2022-08-16T21:19:18.849Z,100743.44
2022-08-16T21:21:46.942Z,100751.59
2022-08-16T21:24:16.957Z,100757.84
2022-08-16T21:26:50.979Z,100749.88
2022-08-16T21:29:24.814Z,100758.03
2022-08-16T21:31:53.182Z,100753.44
2022-08-16T21:34:21.269Z,100745.47
2022-08-16T21:36:49.847Z,100750.22
2022-08-16T21:39:19.177Z,100748.56
2022-08-16T21:41:47.178Z,100681.38
2022-08-16T21:44:15.172Z,100736.50
2022-08-16T21:46:43.136Z,100742.09
2022-08-16T21:49:11.106Z,100737.88
2022-08-16T21:51:39.154Z,100736.19
2022-08-16T21:54:07.226Z,100732.78
2022-08-16T21:56:36.738Z,100739.25
2022-08-16T21:59:10.762Z,100740.47
2022-08-16T22:01:41.440Z,100734.69
2022-08-16T22:04:38.162Z,100737.41
2022-08-16T22:06:58.818Z,100738.44
2022-08-16T22:09:26.885Z,100752.69
2022-08-16T22:11:56.286Z,100748.28
2022-08-16T22:14:24.271Z,100746.56
2022-08-16T22:16:52.545Z,100747.44
2022-08-16T22:19:23.905Z,100751.34
2022-08-16T22:21:52.289Z,100755.75
2022-08-16T22:24:20.348Z,100751.16
2022-08-16T22:26:48.309Z,100747.59
2022-08-16T22:29:17.665Z,100751.00
2022-08-16T22:31:45.901Z,100753.88
2022-08-16T22:34:13.968Z,100743.53
2022-08-16T22:36:42.062Z,100749.50
2022-08-16T22:39:11.992Z,100746.78
2022-08-16T22:41:43.386Z,100751.50
2022-08-16T22:44:11.552Z,100746.25
2022-08-16T22:46:41.166Z,100746.25
2022-08-16T22:49:09.961Z,100751.50
2022-08-16T22:51:39.145Z,100743.53
2022-08-16T22:54:45.120Z,100741.84
2022-08-16T22:56:57.325Z,100741.16
2022-08-16T22:59:26.084Z,100743.88
2022-08-16T23:01:55.502Z,100743.03
2022-08-16T23:04:24.846Z,100738.44
2022-08-16T23:06:53.422Z,100735.72
2022-08-16T23:09:21.730Z,100739.66
2022-08-16T23:11:49.694Z,100745.28
2022-08-16T23:14:18.289Z,100744.22
2022-08-16T23:16:47.075Z,100746.94
2022-08-16T23:19:18.013Z,100719.63
2022-08-16T23:21:49.328Z,100744.56
2022-08-16T23:24:19.390Z,100741.00
2022-08-16T23:26:49.299Z,100734.88
2022-08-16T23:29:23.380Z,100741.16
2022-08-16T23:31:55.991Z,100708.59
2022-08-16T23:34:27.866Z,100730.47
2022-08-16T23:36:56.540Z,100722.47
2022-08-16T23:39:25.361Z,100732.69
2022-08-16T23:41:53.537Z,100728.09
2022-08-16T23:44:55.253Z,100722.66
2022-08-16T23:47:09.789Z,100720.28
2022-08-16T23:50:00.049Z,100728.28
2022-08-16T23:52:40.659Z,100730.50
2022-08-16T23:55:16.173Z,100731.50
2022-08-16T23:57:44.374Z,100724.41
